sensor_id;sensor_type;location;lat;lon;timestamp;temperature;humidity
16976;DHT22;8604;48.148;-1.786;2023-04-15T00:00:56;9.20;99.90
16976;DHT22;8604;48.148;-1.786;2023-04-15T00:03:25;9.20;99.90
16976;DHT22;8604;48.148;-1.786;2023-04-15T00:05:55;9.20;99.90
16976;DHT22;8604;48.148;-1.786;2023-04-15T00:08:23;9.20;99.90
16976;DHT22;8604;48.148;-1.786;2023-04-15T00:10:52;9.20;99.90
16976;DHT22;8604;48.148;-1.786;2023-04-15T00:13:22;9.10;99.90
16976;DHT22;8604;48.148;-1.786;2023-04-15T00:15:50;9.20;99.90
16976;DHT22;8604;48.148;-1.786;2023-04-15T00:18:19;9.20;99.90
16976;DHT22;8604;48.148;-1.786;2023-04-15T00:20:47;9.10;99.90
16976;DHT22;8604;48.148;-1.786;2023-04-15T00:23:16;9.10;99.90
16976;DHT22;8604;48.148;-1.786;2023-04-15T00:25:44;9.00;99.90
16976;DHT22;8604;48.148;-1.786;2023-04-15T00:28:12;9.00;99.90
16976;DHT22;8604;48.148;-1.786;2023-04-15T00:30:43;9.00;99.90
16976;DHT22;8604;48.148;-1.786;2023-04-15T00:33:12;9.00;99.90
16976;DHT22;8604;48.148;-1.786;2023-04-15T00:35:40;8.90;99.90
16976;DHT22;8604;48.148;-1.786;2023-04-15T00:38:08;8.90;99.90
16976;DHT22;8604;48.148;-1.786;2023-04-15T00:40:37;8.90;99.90
16976;DHT22;8604;48.148;-1.786;2023-04-15T00:43:05;8.80;99.90
16976;DHT22;8604;48.148;-1.786;2023-04-15T00:45:34;8.80;99.90
16976;DHT22;8604;48.148;-1.786;2023-04-15T00:48:04;8.70;99.90
16976;DHT22;8604;48.148;-1.786;2023-04-15T00:50:33;8.70;99.90
16976;DHT22;8604;48.148;-1.786;2023-04-15T00:53:01;8.60;99.90
16976;DHT22;8604;48.148;-1.786;2023-04-15T00:55:31;8.60;99.90
16976;DHT22;8604;48.148;-1.786;2023-04-15T00:57:59;8.50;99.90
16976;DHT22;8604;48.148;-1.786;2023-04-15T01:00:28;8.50;99.90
16976;DHT22;8604;48.148;-1.786;2023-04-15T01:02:57;8.50;99.90
16976;DHT22;8604;48.148;-1.786;2023-04-15T01:05:28;8.40;99.90
16976;DHT22;8604;48.148;-1.786;2023-04-15T01:07:57;8.30;99.90
16976;DHT22;8604;48.148;-1.786;2023-04-15T01:10:25;8.30;99.90
16976;DHT22;8604;48.148;-1.786;2023-04-15T01:12:54;8.30;99.90
16976;DHT22;8604;48.148;-1.786;2023-04-15T01:15:25;8.30;99.90
16976;DHT22;8604;48.148;-1.786;2023-04-15T01:17:53;8.20;99.90
16976;DHT22;8604;48.148;-1.786;2023-04-15T01:20:22;8.20;99.90
16976;DHT22;8604;48.148;-1.786;2023-04-15T01:22:53;8.10;99.90
16976;DHT22;8604;48.148;-1.786;2023-04-15T01:25:30;8.10;99.90
16976;DHT22;8604;48.148;-1.786;2023-04-15T01:28:03;8.10;99.90
16976;DHT22;8604;48.148;-1.786;2023-04-15T01:30:33;8.00;99.90
16976;DHT22;8604;48.148;-1.786;2023-04-15T01:33:02;8.00;99.90
16976;DHT22;8604;48.148;-1.786;2023-04-15T01:35:49;8.00;99.90
16976;DHT22;8604;48.148;-1.786;2023-04-15T01:38:17;7.90;99.90
16976;DHT22;8604;48.148;-1.786;2023-04-15T01:40:47;7.90;99.90
16976;DHT22;8604;48.148;-1.786;2023-04-15T01:43:16;7.90;99.90
16976;DHT22;8604;48.148;-1.786;2023-04-15T01:45:45;7.80;99.90
16976;DHT22;8604;48.148;-1.786;2023-04-15T01:48:13;7.80;99.90
16976;DHT22;8604;48.148;-1.786;2023-04-15T01:50:43;7.80;99.90
16976;DHT22;8604;48.148;-1.786;2023-04-15T01:53:13;7.80;99.90
16976;DHT22;8604;48.148;-1.786;2023-04-15T01:55:42;7.70;99.90
16976;DHT22;8604;48.148;-1.786;2023-04-15T01:58:15;7.70;99.90
16976;DHT22;8604;48.148;-1.786;2023-04-15T02:00:43;7.60;99.90
16976;DHT22;8604;48.148;-1.786;2023-04-15T02:03:12;7.60;99.90
16976;DHT22;8604;48.148;-1.786;2023-04-15T02:05:41;7.60;99.90
16976;DHT22;8604;48.148;-1.786;2023-04-15T02:08:10;7.60;99.90
16976;DHT22;8604;48.148;-1.786;2023-04-15T02:10:39;7.60;99.90
16976;DHT22;8604;48.148;-1.786;2023-04-15T02:13:07;7.50;99.90
16976;DHT22;8604;48.148;-1.786;2023-04-15T02:15:38;7.50;99.90
16976;DHT22;8604;48.148;-1.786;2023-04-15T02:18:06;7.50;99.90
16976;DHT22;8604;48.148;-1.786;2023-04-15T02:20:35;7.40;99.90
16976;DHT22;8604;48.148;-1.786;2023-04-15T02:23:04;7.40;99.90
16976;DHT22;8604;48.148;-1.786;2023-04-15T02:25:33;7.40;99.90
16976;DHT22;8604;48.148;-1.786;2023-04-15T02:28:04;7.40;99.90
16976;DHT22;8604;48.148;-1.786;2023-04-15T02:30:33;7.40;99.90
16976;DHT22;8604;48.148;-1.786;2023-04-15T02:33:03;7.40;99.90
16976;DHT22;8604;48.148;-1.786;2023-04-15T02:35:31;7.40;99.90
16976;DHT22;8604;48.148;-1.786;2023-04-15T02:38:00;7.40;99.90
16976;DHT22;8604;48.148;-1.786;2023-04-15T02:40:29;7.40;99.90
16976;DHT22;8604;48.148;-1.786;2023-04-15T02:42:57;7.40;99.90
16976;DHT22;8604;48.148;-1.786;2023-04-15T02:45:27;7.30;99.90
16976;DHT22;8604;48.148;-1.786;2023-04-15T02:47:55;7.40;99.90
16976;DHT22;8604;48.148;-1.786;2023-04-15T02:50:26;7.30;99.90
16976;DHT22;8604;48.148;-1.786;2023-04-15T02:52:54;7.30;99.90
16976;DHT22;8604;48.148;-1.786;2023-04-15T02:55:23;7.30;99.90
16976;DHT22;8604;48.148;-1.786;2023-04-15T02:57:51;7.30;99.90
16976;DHT22;8604;48.148;-1.786;2023-04-15T03:00:20;7.30;99.90
16976;DHT22;8604;48.148;-1.786;2023-04-15T03:02:48;7.30;99.90
16976;DHT22;8604;48.148;-1.786;2023-04-15T03:05:22;7.30;99.90
16976;DHT22;8604;48.148;-1.786;2023-04-15T03:07:53;7.30;99.90
16976;DHT22;8604;48.148;-1.786;2023-04-15T03:10:21;7.30;99.90
16976;DHT22;8604;48.148;-1.786;2023-04-15T03:12:50;7.20;99.90
16976;DHT22;8604;48.148;-1.786;2023-04-15T03:15:21;7.20;99.90
16976;DHT22;8604;48.148;-1.786;2023-04-15T03:17:51;7.20;99.90
16976;DHT22;8604;48.148;-1.786;2023-04-15T03:20:20;7.20;99.90
16976;DHT22;8604;48.148;-1.786;2023-04-15T03:22:48;7.10;99.90
16976;DHT22;8604;48.148;-1.786;2023-04-15T03:25:20;7.10;99.90
16976;DHT22;8604;48.148;-1.786;2023-04-15T03:27:48;7.10;99.90
16976;DHT22;8604;48.148;-1.786;2023-04-15T03:30:17;7.10;99.90
16976;DHT22;8604;48.148;-1.786;2023-04-15T03:32:45;7.10;99.90
16976;DHT22;8604;48.148;-1.786;2023-04-15T03:35:14;7.10;99.90
16976;DHT22;8604;48.148;-1.786;2023-04-15T03:37:43;7.00;99.90
16976;DHT22;8604;48.148;-1.786;2023-04-15T03:40:11;7.00;99.90
16976;DHT22;8604;48.148;-1.786;2023-04-15T03:42:41;7.00;99.90
16976;DHT22;8604;48.148;-1.786;2023-04-15T03:45:10;7.00;99.90
16976;DHT22;8604;48.148;-1.786;2023-04-15T03:47:38;7.00;99.90
16976;DHT22;8604;48.148;-1.786;2023-04-15T03:50:07;7.00;99.90
16976;DHT22;8604;48.148;-1.786;2023-04-15T03:52:35;7.00;99.90
16976;DHT22;8604;48.148;-1.786;2023-04-15T03:55:04;6.90;99.90
16976;DHT22;8604;48.148;-1.786;2023-04-15T03:57:33;7.00;99.90
16976;DHT22;8604;48.148;-1.786;2023-04-15T04:00:07;7.00;99.90
16976;DHT22;8604;48.148;-1.786;2023-04-15T04:02:39;7.00;99.90
16976;DHT22;8604;48.148;-1.786;2023-04-15T04:05:08;6.90;99.90
16976;DHT22;8604;48.148;-1.786;2023-04-15T04:07:36;7.00;99.90
16976;DHT22;8604;48.148;-1.786;2023-04-15T04:10:05;6.90;99.90
16976;DHT22;8604;48.148;-1.786;2023-04-15T04:12:34;6.90;99.90
16976;DHT22;8604;48.148;-1.786;2023-04-15T04:15:03;6.90;99.90
16976;DHT22;8604;48.148;-1.786;2023-04-15T04:17:33;6.90;99.90
16976;DHT22;8604;48.148;-1.786;2023-04-15T04:20:01;6.90;99.90
16976;DHT22;8604;48.148;-1.786;2023-04-15T04:22:30;6.90;99.90
16976;DHT22;8604;48.148;-1.786;2023-04-15T04:24:58;6.80;99.90
16976;DHT22;8604;48.148;-1.786;2023-04-15T04:27:28;6.80;99.90
16976;DHT22;8604;48.148;-1.786;2023-04-15T04:29:56;6.80;99.90
16976;DHT22;8604;48.148;-1.786;2023-04-15T04:32:25;6.70;99.90
16976;DHT22;8604;48.148;-1.786;2023-04-15T04:34:55;6.70;99.90
16976;DHT22;8604;48.148;-1.786;2023-04-15T04:37:23;6.70;99.90
16976;DHT22;8604;48.148;-1.786;2023-04-15T04:39:51;6.70;99.90
16976;DHT22;8604;48.148;-1.786;2023-04-15T04:42:20;6.70;99.90
16976;DHT22;8604;48.148;-1.786;2023-04-15T04:44:48;6.70;99.90
16976;DHT22;8604;48.148;-1.786;2023-04-15T04:47:16;6.70;99.90
16976;DHT22;8604;48.148;-1.786;2023-04-15T04:49:44;6.80;99.90
16976;DHT22;8604;48.148;-1.786;2023-04-15T04:52:14;6.80;99.90
16976;DHT22;8604;48.148;-1.786;2023-04-15T04:54:43;6.80;99.90
16976;DHT22;8604;48.148;-1.786;2023-04-15T04:57:11;6.70;99.90
16976;DHT22;8604;48.148;-1.786;2023-04-15T04:59:39;6.80;99.90
16976;DHT22;8604;48.148;-1.786;2023-04-15T05:02:08;6.80;99.90
16976;DHT22;8604;48.148;-1.786;2023-04-15T05:04:37;6.90;99.90
16976;DHT22;8604;48.148;-1.786;2023-04-15T05:07:05;6.90;99.90
16976;DHT22;8604;48.148;-1.786;2023-04-15T05:09:35;6.90;99.90
16976;DHT22;8604;48.148;-1.786;2023-04-15T05:12:04;6.90;99.90
16976;DHT22;8604;48.148;-1.786;2023-04-15T05:14:32;7.00;99.90
16976;DHT22;8604;48.148;-1.786;2023-04-15T05:17:00;7.00;99.90
16976;DHT22;8604;48.148;-1.786;2023-04-15T05:19:29;7.00;99.90
16976;DHT22;8604;48.148;-1.786;2023-04-15T05:21:57;7.00;99.90
16976;DHT22;8604;48.148;-1.786;2023-04-15T05:24:26;7.10;99.90
16976;DHT22;8604;48.148;-1.786;2023-04-15T05:26:56;7.00;99.90
16976;DHT22;8604;48.148;-1.786;2023-04-15T05:29:24;7.10;99.90
16976;DHT22;8604;48.148;-1.786;2023-04-15T05:31:53;7.10;99.90
16976;DHT22;8604;48.148;-1.786;2023-04-15T05:34:21;7.10;99.90
16976;DHT22;8604;48.148;-1.786;2023-04-15T05:36:49;7.10;99.90
16976;DHT22;8604;48.148;-1.786;2023-04-15T05:39:18;7.10;99.90
16976;DHT22;8604;48.148;-1.786;2023-04-15T05:41:46;7.10;99.90
16976;DHT22;8604;48.148;-1.786;2023-04-15T05:44:16;7.10;99.90
16976;DHT22;8604;48.148;-1.786;2023-04-15T05:47:18;7.20;99.90
16976;DHT22;8604;48.148;-1.786;2023-04-15T05:50:03;7.20;99.90
16976;DHT22;8604;48.148;-1.786;2023-04-15T05:52:50;7.30;99.90
16976;DHT22;8604;48.148;-1.786;2023-04-15T05:55:36;7.30;99.90
16976;DHT22;8604;48.148;-1.786;2023-04-15T05:59:00;7.30;99.90
16976;DHT22;8604;48.148;-1.786;2023-04-15T06:02:18;7.40;99.90
16976;DHT22;8604;48.148;-1.786;2023-04-15T06:05:07;7.50;99.90
16976;DHT22;8604;48.148;-1.786;2023-04-15T06:07:58;7.50;99.90
16976;DHT22;8604;48.148;-1.786;2023-04-15T06:14:05;7.70;99.90
16976;DHT22;8604;48.148;-1.786;2023-04-15T06:16:46;7.80;99.90
16976;DHT22;8604;48.148;-1.786;2023-04-15T06:19:45;7.80;99.90
16976;DHT22;8604;48.148;-1.786;2023-04-15T06:22:25;7.90;99.90
16976;DHT22;8604;48.148;-1.786;2023-04-15T06:25:36;8.00;99.90
16976;DHT22;8604;48.148;-1.786;2023-04-15T06:28:44;8.00;99.90
16976;DHT22;8604;48.148;-1.786;2023-04-15T06:31:13;8.20;99.90
16976;DHT22;8604;48.148;-1.786;2023-04-15T06:33:44;8.20;99.90
16976;DHT22;8604;48.148;-1.786;2023-04-15T06:36:46;8.30;99.90
16976;DHT22;8604;48.148;-1.786;2023-04-15T06:39:25;8.40;99.90
16976;DHT22;8604;48.148;-1.786;2023-04-15T06:42:34;8.60;99.90
16976;DHT22;8604;48.148;-1.786;2023-04-15T06:45:14;8.90;99.90
16976;DHT22;8604;48.148;-1.786;2023-04-15T06:47:59;9.10;99.90
16976;DHT22;8604;48.148;-1.786;2023-04-15T06:50:28;9.30;99.90
16976;DHT22;8604;48.148;-1.786;2023-04-15T06:52:58;9.50;99.90
16976;DHT22;8604;48.148;-1.786;2023-04-15T06:55:52;9.70;99.90
16976;DHT22;8604;48.148;-1.786;2023-04-15T06:58:20;9.90;99.90
16976;DHT22;8604;48.148;-1.786;2023-04-15T07:00:49;10.10;99.90
16976;DHT22;8604;48.148;-1.786;2023-04-15T07:03:18;10.30;99.90
16976;DHT22;8604;48.148;-1.786;2023-04-15T07:06:00;10.40;99.90
16976;DHT22;8604;48.148;-1.786;2023-04-15T07:08:34;10.60;99.90
16976;DHT22;8604;48.148;-1.786;2023-04-15T07:11:02;10.60;99.90
16976;DHT22;8604;48.148;-1.786;2023-04-15T07:13:31;10.70;99.90
16976;DHT22;8604;48.148;-1.786;2023-04-15T07:19:56;10.80;99.90
16976;DHT22;8604;48.148;-1.786;2023-04-15T07:22:25;10.90;99.90
16976;DHT22;8604;48.148;-1.786;2023-04-15T07:24:54;11.10;99.90
16976;DHT22;8604;48.148;-1.786;2023-04-15T07:27:51;11.40;99.90
16976;DHT22;8604;48.148;-1.786;2023-04-15T07:30:20;11.70;99.90
16976;DHT22;8604;48.148;-1.786;2023-04-15T07:32:49;11.90;99.90
16976;DHT22;8604;48.148;-1.786;2023-04-15T07:35:18;12.20;99.90
16976;DHT22;8604;48.148;-1.786;2023-04-15T07:37:47;12.40;99.90
16976;DHT22;8604;48.148;-1.786;2023-04-15T07:40:17;12.60;99.90
16976;DHT22;8604;48.148;-1.786;2023-04-15T07:42:45;12.80;99.90
16976;DHT22;8604;48.148;-1.786;2023-04-15T07:45:15;13.00;99.90
16976;DHT22;8604;48.148;-1.786;2023-04-15T07:47:56;13.30;99.90
16976;DHT22;8604;48.148;-1.786;2023-04-15T07:51:26;13.80;99.90
16976;DHT22;8604;48.148;-1.786;2023-04-15T07:53:55;14.20;99.90
16976;DHT22;8604;48.148;-1.786;2023-04-15T07:56:25;14.50;99.90
16976;DHT22;8604;48.148;-1.786;2023-04-15T07:58:54;14.70;99.90
16976;DHT22;8604;48.148;-1.786;2023-04-15T08:01:22;15.00;99.90
16976;DHT22;8604;48.148;-1.786;2023-04-15T08:03:51;14.90;99.90
16976;DHT22;8604;48.148;-1.786;2023-04-15T08:06:20;15.10;99.90
16976;DHT22;8604;48.148;-1.786;2023-04-15T08:08:49;14.90;99.90
16976;DHT22;8604;48.148;-1.786;2023-04-15T08:11:18;14.50;99.90
16976;DHT22;8604;48.148;-1.786;2023-04-15T08:13:47;14.60;99.90
16976;DHT22;8604;48.148;-1.786;2023-04-15T08:16:18;15.30;99.90
16976;DHT22;8604;48.148;-1.786;2023-04-15T08:18:48;14.60;99.90
16976;DHT22;8604;48.148;-1.786;2023-04-15T08:21:17;14.70;99.90
16976;DHT22;8604;48.148;-1.786;2023-04-15T08:23:48;14.00;99.90
16976;DHT22;8604;48.148;-1.786;2023-04-15T08:26:16;14.50;99.90
16976;DHT22;8604;48.148;-1.786;2023-04-15T08:28:47;14.70;99.90
16976;DHT22;8604;48.148;-1.786;2023-04-15T08:31:17;14.00;99.90
16976;DHT22;8604;48.148;-1.786;2023-04-15T08:33:46;13.60;99.90
16976;DHT22;8604;48.148;-1.786;2023-04-15T08:36:15;13.70;99.90
16976;DHT22;8604;48.148;-1.786;2023-04-15T08:38:45;14.00;99.90
16976;DHT22;8604;48.148;-1.786;2023-04-15T08:41:20;14.70;99.90
16976;DHT22;8604;48.148;-1.786;2023-04-15T08:43:56;14.50;99.90
16976;DHT22;8604;48.148;-1.786;2023-04-15T08:46:25;14.10;99.90
16976;DHT22;8604;48.148;-1.786;2023-04-15T08:48:56;13.90;99.90
16976;DHT22;8604;48.148;-1.786;2023-04-15T08:51:27;13.60;99.90
16976;DHT22;8604;48.148;-1.786;2023-04-15T08:53:56;13.30;99.90
16976;DHT22;8604;48.148;-1.786;2023-04-15T08:56:25;13.10;99.90
16976;DHT22;8604;48.148;-1.786;2023-04-15T08:58:57;13.10;99.90
16976;DHT22;8604;48.148;-1.786;2023-04-15T09:01:26;13.50;99.90
16976;DHT22;8604;48.148;-1.786;2023-04-15T09:03:56;14.50;99.90
16976;DHT22;8604;48.148;-1.786;2023-04-15T09:06:27;15.40;99.90
16976;DHT22;8604;48.148;-1.786;2023-04-15T09:08:58;16.00;99.90
16976;DHT22;8604;48.148;-1.786;2023-04-15T09:11:34;16.70;99.90
16976;DHT22;8604;48.148;-1.786;2023-04-15T09:14:04;17.20;99.90
16976;DHT22;8604;48.148;-1.786;2023-04-15T09:16:57;17.70;99.90
16976;DHT22;8604;48.148;-1.786;2023-04-15T09:19:26;17.80;99.90
16976;DHT22;8604;48.148;-1.786;2023-04-15T09:21:56;17.70;99.90
16976;DHT22;8604;48.148;-1.786;2023-04-15T09:24:34;17.70;99.90
16976;DHT22;8604;48.148;-1.786;2023-04-15T09:27:04;16.90;99.90
16976;DHT22;8604;48.148;-1.786;2023-04-15T09:29:34;17.20;99.90
16976;DHT22;8604;48.148;-1.786;2023-04-15T09:32:11;17.50;99.90
16976;DHT22;8604;48.148;-1.786;2023-04-15T09:34:40;16.50;99.90
16976;DHT22;8604;48.148;-1.786;2023-04-15T09:37:12;16.30;99.90
16976;DHT22;8604;48.148;-1.786;2023-04-15T09:39:58;16.60;99.90
16976;DHT22;8604;48.148;-1.786;2023-04-15T09:42:27;17.30;99.90
16976;DHT22;8604;48.148;-1.786;2023-04-15T09:45:07;17.50;99.90
16976;DHT22;8604;48.148;-1.786;2023-04-15T09:48:43;18.00;99.90
16976;DHT22;8604;48.148;-1.786;2023-04-15T12:20:20;17.30;99.90
16976;DHT22;8604;48.148;-1.786;2023-04-15T12:22:49;17.30;99.90
16976;DHT22;8604;48.148;-1.786;2023-04-15T12:28:39;17.60;99.90
16976;DHT22;8604;48.148;-1.786;2023-04-15T12:31:08;17.40;99.90
16976;DHT22;8604;48.148;-1.786;2023-04-15T12:33:37;17.20;99.90
16976;DHT22;8604;48.148;-1.786;2023-04-15T12:36:07;16.90;99.90
16976;DHT22;8604;48.148;-1.786;2023-04-15T12:38:39;16.60;99.90
16976;DHT22;8604;48.148;-1.786;2023-04-15T12:41:12;16.50;99.90
16976;DHT22;8604;48.148;-1.786;2023-04-15T12:43:40;16.40;99.90
16976;DHT22;8604;48.148;-1.786;2023-04-15T12:46:12;16.40;99.90
16976;DHT22;8604;48.148;-1.786;2023-04-15T12:48:45;16.70;99.90
16976;DHT22;8604;48.148;-1.786;2023-04-15T12:51:15;16.60;99.90
16976;DHT22;8604;48.148;-1.786;2023-04-15T12:53:56;16.60;99.90
16976;DHT22;8604;48.148;-1.786;2023-04-15T12:59:34;16.50;99.90
16976;DHT22;8604;48.148;-1.786;2023-04-15T13:03:12;16.40;99.90
16976;DHT22;8604;48.148;-1.786;2023-04-15T13:05:42;16.20;99.90
16976;DHT22;8604;48.148;-1.786;2023-04-15T13:08:37;16.10;99.90
16976;DHT22;8604;48.148;-1.786;2023-04-15T13:14:38;16.00;99.90
16976;DHT22;8604;48.148;-1.786;2023-04-15T13:17:07;15.90;99.90
16976;DHT22;8604;48.148;-1.786;2023-04-15T13:19:38;16.00;99.90
16976;DHT22;8604;48.148;-1.786;2023-04-15T13:26:14;16.00;99.90
16976;DHT22;8604;48.148;-1.786;2023-04-15T13:28:43;16.00;99.90
16976;DHT22;8604;48.148;-1.786;2023-04-15T13:31:15;15.80;99.90
16976;DHT22;8604;48.148;-1.786;2023-04-15T13:33:46;15.90;99.90
16976;DHT22;8604;48.148;-1.786;2023-04-15T13:36:14;16.00;99.90
16976;DHT22;8604;48.148;-1.786;2023-04-15T13:38:43;16.00;99.90
16976;DHT22;8604;48.148;-1.786;2023-04-15T13:41:11;16.00;99.90
16976;DHT22;8604;48.148;-1.786;2023-04-15T13:43:41;16.10;99.90
16976;DHT22;8604;48.148;-1.786;2023-04-15T13:46:10;16.00;99.90
16976;DHT22;8604;48.148;-1.786;2023-04-15T13:48:39;15.90;99.90
16976;DHT22;8604;48.148;-1.786;2023-04-15T13:51:07;15.70;99.90
16976;DHT22;8604;48.148;-1.786;2023-04-15T13:53:36;15.60;99.90
16976;DHT22;8604;48.148;-1.786;2023-04-15T13:56:06;15.60;99.90
16976;DHT22;8604;48.148;-1.786;2023-04-15T13:58:35;15.50;99.90
16976;DHT22;8604;48.148;-1.786;2023-04-15T14:01:10;15.50;99.90
16976;DHT22;8604;48.148;-1.786;2023-04-15T14:03:39;15.60;99.90
16976;DHT22;8604;48.148;-1.786;2023-04-15T14:06:08;15.70;99.90
16976;DHT22;8604;48.148;-1.786;2023-04-15T14:08:37;15.70;99.90
16976;DHT22;8604;48.148;-1.786;2023-04-15T14:11:05;15.40;99.90
16976;DHT22;8604;48.148;-1.786;2023-04-15T14:13:34;15.20;99.90
16976;DHT22;8604;48.148;-1.786;2023-04-15T14:16:04;15.30;99.90
16976;DHT22;8604;48.148;-1.786;2023-04-15T14:18:33;15.50;99.90
16976;DHT22;8604;48.148;-1.786;2023-04-15T14:21:04;15.60;99.90
16976;DHT22;8604;48.148;-1.786;2023-04-15T14:23:33;15.70;99.90
16976;DHT22;8604;48.148;-1.786;2023-04-15T14:26:01;15.70;99.90
16976;DHT22;8604;48.148;-1.786;2023-04-15T14:28:30;15.50;99.90
16976;DHT22;8604;48.148;-1.786;2023-04-15T14:30:59;15.50;99.90
16976;DHT22;8604;48.148;-1.786;2023-04-15T14:33:29;15.60;99.90
16976;DHT22;8604;48.148;-1.786;2023-04-15T14:35:57;15.40;99.90
16976;DHT22;8604;48.148;-1.786;2023-04-15T14:38:26;15.30;99.90
16976;DHT22;8604;48.148;-1.786;2023-04-15T14:40:54;15.20;99.90
16976;DHT22;8604;48.148;-1.786;2023-04-15T14:43:22;15.30;99.90
16976;DHT22;8604;48.148;-1.786;2023-04-15T14:45:51;15.20;99.90
16976;DHT22;8604;48.148;-1.786;2023-04-15T14:48:20;15.10;99.90
16976;DHT22;8604;48.148;-1.786;2023-04-15T14:50:50;15.10;99.90
16976;DHT22;8604;48.148;-1.786;2023-04-15T14:53:18;14.90;99.90
16976;DHT22;8604;48.148;-1.786;2023-04-15T14:55:47;14.90;99.90
16976;DHT22;8604;48.148;-1.786;2023-04-15T14:58:15;14.80;99.90
16976;DHT22;8604;48.148;-1.786;2023-04-15T15:00:44;14.70;99.90
16976;DHT22;8604;48.148;-1.786;2023-04-15T15:03:12;14.70;99.90
16976;DHT22;8604;48.148;-1.786;2023-04-15T15:05:43;14.50;99.90
16976;DHT22;8604;48.148;-1.786;2023-04-15T15:08:13;14.40;99.90
16976;DHT22;8604;48.148;-1.786;2023-04-15T15:10:42;14.50;99.90
16976;DHT22;8604;48.148;-1.786;2023-04-15T15:13:16;14.50;99.90
16976;DHT22;8604;48.148;-1.786;2023-04-15T15:15:47;14.40;99.90
16976;DHT22;8604;48.148;-1.786;2023-04-15T15:18:16;14.30;99.90
16976;DHT22;8604;48.148;-1.786;2023-04-15T15:20:46;14.30;99.90
16976;DHT22;8604;48.148;-1.786;2023-04-15T15:23:19;14.30;99.90
16976;DHT22;8604;48.148;-1.786;2023-04-15T15:25:48;14.20;99.90
16976;DHT22;8604;48.148;-1.786;2023-04-15T15:28:16;14.20;99.90
16976;DHT22;8604;48.148;-1.786;2023-04-15T15:30:44;14.20;99.90
16976;DHT22;8604;48.148;-1.786;2023-04-15T15:33:25;14.20;99.90
16976;DHT22;8604;48.148;-1.786;2023-04-15T15:35:56;14.20;99.90
16976;DHT22;8604;48.148;-1.786;2023-04-15T15:38:27;14.20;99.90
16976;DHT22;8604;48.148;-1.786;2023-04-15T15:40:57;14.20;99.90
16976;DHT22;8604;48.148;-1.786;2023-04-15T15:43:25;14.20;99.90
16976;DHT22;8604;48.148;-1.786;2023-04-15T15:45:54;14.10;99.90
16976;DHT22;8604;48.148;-1.786;2023-04-15T15:48:22;14.10;99.90
16976;DHT22;8604;48.148;-1.786;2023-04-15T15:51:09;14.00;99.90
16976;DHT22;8604;48.148;-1.786;2023-04-15T15:53:40;13.90;99.90
16976;DHT22;8604;48.148;-1.786;2023-04-15T15:56:10;13.90;99.90
16976;DHT22;8604;48.148;-1.786;2023-04-15T15:58:39;13.90;99.90
16976;DHT22;8604;48.148;-1.786;2023-04-15T16:01:07;14.00;99.90
16976;DHT22;8604;48.148;-1.786;2023-04-15T16:03:35;14.10;99.90
16976;DHT22;8604;48.148;-1.786;2023-04-15T16:06:04;14.10;99.90
16976;DHT22;8604;48.148;-1.786;2023-04-15T16:08:32;14.20;99.90
16976;DHT22;8604;48.148;-1.786;2023-04-15T16:11:02;14.10;99.90
16976;DHT22;8604;48.148;-1.786;2023-04-15T16:13:31;14.00;99.90
16976;DHT22;8604;48.148;-1.786;2023-04-15T16:15:59;13.90;99.90
16976;DHT22;8604;48.148;-1.786;2023-04-15T16:18:27;13.90;99.90
16976;DHT22;8604;48.148;-1.786;2023-04-15T16:20:57;13.80;99.90
16976;DHT22;8604;48.148;-1.786;2023-04-15T16:23:25;13.70;99.90
16976;DHT22;8604;48.148;-1.786;2023-04-15T16:25:54;13.60;99.90
16976;DHT22;8604;48.148;-1.786;2023-04-15T16:28:24;13.60;99.90
16976;DHT22;8604;48.148;-1.786;2023-04-15T16:31:18;13.60;99.90
16976;DHT22;8604;48.148;-1.786;2023-04-15T16:33:48;13.60;99.90
16976;DHT22;8604;48.148;-1.786;2023-04-15T16:36:17;13.60;99.90
16976;DHT22;8604;48.148;-1.786;2023-04-15T16:38:45;13.60;99.90
16976;DHT22;8604;48.148;-1.786;2023-04-15T16:41:14;13.50;99.90
16976;DHT22;8604;48.148;-1.786;2023-04-15T16:43:45;13.60;99.90
16976;DHT22;8604;48.148;-1.786;2023-04-15T16:46:14;13.50;99.90
16976;DHT22;8604;48.148;-1.786;2023-04-15T16:48:53;13.40;99.90
16976;DHT22;8604;48.148;-1.786;2023-04-15T16:51:21;13.40;99.90
16976;DHT22;8604;48.148;-1.786;2023-04-15T16:53:50;13.40;99.90
16976;DHT22;8604;48.148;-1.786;2023-04-15T16:56:21;13.40;99.90
16976;DHT22;8604;48.148;-1.786;2023-04-15T16:58:52;13.30;99.90
16976;DHT22;8604;48.148;-1.786;2023-04-15T17:01:20;13.30;99.90
16976;DHT22;8604;48.148;-1.786;2023-04-15T17:03:50;13.30;99.90
16976;DHT22;8604;48.148;-1.786;2023-04-15T17:06:22;13.20;99.90
16976;DHT22;8604;48.148;-1.786;2023-04-15T17:08:50;13.20;99.90
16976;DHT22;8604;48.148;-1.786;2023-04-15T17:11:18;13.20;99.90
16976;DHT22;8604;48.148;-1.786;2023-04-15T17:13:47;13.20;99.90
16976;DHT22;8604;48.148;-1.786;2023-04-15T17:16:17;13.10;99.90
16976;DHT22;8604;48.148;-1.786;2023-04-15T17:18:45;13.10;99.90
16976;DHT22;8604;48.148;-1.786;2023-04-15T17:21:22;13.00;99.90
16976;DHT22;8604;48.148;-1.786;2023-04-15T17:23:55;13.00;99.90
16976;DHT22;8604;48.148;-1.786;2023-04-15T17:26:25;12.90;99.90
16976;DHT22;8604;48.148;-1.786;2023-04-15T17:28:55;12.70;99.90
16976;DHT22;8604;48.148;-1.786;2023-04-15T17:31:33;12.70;99.90
16976;DHT22;8604;48.148;-1.786;2023-04-15T17:34:21;12.60;99.90
16976;DHT22;8604;48.148;-1.786;2023-04-15T17:37:09;12.60;99.90
16976;DHT22;8604;48.148;-1.786;2023-04-15T17:39:58;12.50;99.90
16976;DHT22;8604;48.148;-1.786;2023-04-15T17:42:46;12.50;99.90
16976;DHT22;8604;48.148;-1.786;2023-04-15T17:45:34;12.40;99.90
16976;DHT22;8604;48.148;-1.786;2023-04-15T17:48:25;12.30;99.90
16976;DHT22;8604;48.148;-1.786;2023-04-15T17:51:14;12.20;99.90
16976;DHT22;8604;48.148;-1.786;2023-04-15T17:54:03;12.30;99.90
16976;DHT22;8604;48.148;-1.786;2023-04-15T17:56:52;12.20;99.90
16976;DHT22;8604;48.148;-1.786;2023-04-15T17:59:42;12.20;99.90
16976;DHT22;8604;48.148;-1.786;2023-04-15T18:02:33;12.10;99.90
16976;DHT22;8604;48.148;-1.786;2023-04-15T18:05:24;12.10;99.90
16976;DHT22;8604;48.148;-1.786;2023-04-15T18:08:13;12.00;99.90
16976;DHT22;8604;48.148;-1.786;2023-04-15T18:11:01;12.00;99.90
16976;DHT22;8604;48.148;-1.786;2023-04-15T18:13:49;12.00;99.90
16976;DHT22;8604;48.148;-1.786;2023-04-15T18:16:38;11.90;99.90
16976;DHT22;8604;48.148;-1.786;2023-04-15T18:19:28;11.80;99.90
16976;DHT22;8604;48.148;-1.786;2023-04-15T18:21:59;11.70;99.90
16976;DHT22;8604;48.148;-1.786;2023-04-15T18:24:27;11.60;99.90
16976;DHT22;8604;48.148;-1.786;2023-04-15T18:26:56;11.60;99.90
16976;DHT22;8604;48.148;-1.786;2023-04-15T18:29:25;11.60;99.90
16976;DHT22;8604;48.148;-1.786;2023-04-15T18:31:53;11.50;99.90
16976;DHT22;8604;48.148;-1.786;2023-04-15T18:34:22;11.40;99.90
16976;DHT22;8604;48.148;-1.786;2023-04-15T18:36:51;11.40;99.90
16976;DHT22;8604;48.148;-1.786;2023-04-15T18:39:21;11.30;99.90
16976;DHT22;8604;48.148;-1.786;2023-04-15T18:41:49;11.20;99.90
16976;DHT22;8604;48.148;-1.786;2023-04-15T18:44:18;11.10;99.90
16976;DHT22;8604;48.148;-1.786;2023-04-15T18:46:47;11.10;99.90
16976;DHT22;8604;48.148;-1.786;2023-04-15T18:49:16;11.00;99.90
16976;DHT22;8604;48.148;-1.786;2023-04-15T18:51:44;11.00;99.90
16976;DHT22;8604;48.148;-1.786;2023-04-15T18:54:13;10.90;99.90
16976;DHT22;8604;48.148;-1.786;2023-04-15T18:56:43;10.90;99.90
16976;DHT22;8604;48.148;-1.786;2023-04-15T18:59:11;10.80;99.90
16976;DHT22;8604;48.148;-1.786;2023-04-15T19:01:57;10.70;99.90